sensor_id;sensor_type;location;lat;lon;timestamp;pressure;altitude;pressure_sealevel;temperature;humidity
10060;BME280;5069;49.306;8.636;2023-12-29T00:00:07;100626.03;;;9.72;100.00
10060;BME280;5069;49.306;8.636;2023-12-29T00:03:11;100628.84;;;9.65;100.00
10060;BME280;5069;49.306;8.636;2023-12-29T00:06:13;100627.25;;;9.59;100.00
10060;BME280;5069;49.306;8.636;2023-12-29T00:09:14;100621.25;;;9.54;100.00
10060;BME280;5069;49.306;8.636;2023-12-29T00:12:16;100633.41;;;9.58;100.00
10060;BME280;5069;49.306;8.636;2023-12-29T00:15:18;100627.25;;;9.59;100.00
10060;BME280;5069;49.306;8.636;2023-12-29T00:18:20;100620.38;;;9.53;100.00
10060;BME280;5069;49.306;8.636;2023-12-29T00:21:22;100612.34;;;9.58;100.00
10060;BME280;5069;49.306;8.636;2023-12-29T00:24:23;100613.22;;;9.59;100.00
10060;BME280;5069;49.306;8.636;2023-12-29T00:27:25;100612.19;;;9.64;100.00
10060;BME280;5069;49.306;8.636;2023-12-29T00:30:27;100619.16;;;9.67;100.00
10060;BME280;5069;49.306;8.636;2023-12-29T00:33:51;100628.78;;;9.68;100.00
10060;BME280;5069;49.306;8.636;2023-12-29T00:36:54;100632.34;;;9.65;100.00
10060;BME280;5069;49.306;8.636;2023-12-29T00:39:56;100612.88;;;9.72;100.00
10060;BME280;5069;49.306;8.636;2023-12-29T00:42:57;100614.47;;;9.78;100.00
10060;BME280;5069;49.306;8.636;2023-12-29T00:46:01;100609.19;;;9.79;100.00
10060;BME280;5069;49.306;8.636;2023-12-29T00:49:04;100611.81;;;9.79;100.00
10060;BME280;5069;49.306;8.636;2023-12-29T00:52:06;100599.56;;;9.77;100.00
10060;BME280;5069;49.306;8.636;2023-12-29T00:55:08;100582.00;;;9.77;100.00
10060;BME280;5069;49.306;8.636;2023-12-29T00:58:10;100588.00;;;9.82;100.00
10060;BME280;5069;49.306;8.636;2023-12-29T01:01:11;100600.56;;;9.73;100.00
10060;BME280;5069;49.306;8.636;2023-12-29T01:04:13;100603.25;;;9.71;100.00
10060;BME280;5069;49.306;8.636;2023-12-29T01:07:15;100611.09;;;9.73;100.00
10060;BME280;5069;49.306;8.636;2023-12-29T01:10:17;100610.13;;;9.75;100.00
10060;BME280;5069;49.306;8.636;2023-12-29T01:13:19;100603.91;;;9.79;100.00
10060;BME280;5069;49.306;8.636;2023-12-29T01:16:20;100601.06;;;9.87;100.00
10060;BME280;5069;49.306;8.636;2023-12-29T01:19:22;100601.06;;;9.87;100.00
10060;BME280;5069;49.306;8.636;2023-12-29T01:22:23;100592.38;;;9.83;100.00
10060;BME280;5069;49.306;8.636;2023-12-29T01:25:25;100603.84;;;9.81;100.00
10060;BME280;5069;49.306;8.636;2023-12-29T01:28:26;100603.84;;;9.81;100.00
10060;BME280;5069;49.306;8.636;2023-12-29T01:31:29;100603.94;;;9.78;100.00
10060;BME280;5069;49.306;8.636;2023-12-29T01:34:32;100590.03;;;9.73;100.00
10060;BME280;5069;49.306;8.636;2023-12-29T01:37:34;100588.31;;;9.72;100.00
10060;BME280;5069;49.306;8.636;2023-12-29T01:40:46;100588.47;;;9.66;100.00
10060;BME280;5069;49.306;8.636;2023-12-29T01:47:02;100596.69;;;9.53;100.00
10060;BME280;5069;49.306;8.636;2023-12-29T01:50:06;100596.78;;;9.50;100.00
10060;BME280;5069;49.306;8.636;2023-12-29T01:53:08;100596.00;;;9.45;100.00
10060;BME280;5069;49.306;8.636;2023-12-29T01:56:10;100599.56;;;9.44;100.00
10060;BME280;5069;49.306;8.636;2023-12-29T01:59:12;100589.19;;;9.38;100.00
10060;BME280;5069;49.306;8.636;2023-12-29T02:02:25;100590.16;;;9.34;100.00
10060;BME280;5069;49.306;8.636;2023-12-29T02:05:29;100579.81;;;9.28;100.00
10060;BME280;5069;49.306;8.636;2023-12-29T02:08:33;100573.72;;;9.26;100.00
10060;BME280;5069;49.306;8.636;2023-12-29T02:11:34;100575.59;;;9.21;100.00
10060;BME280;5069;49.306;8.636;2023-12-29T02:14:36;100566.91;;;9.18;100.00
10060;BME280;5069;49.306;8.636;2023-12-29T02:17:40;100558.34;;;9.11;100.00
10060;BME280;5069;49.306;8.636;2023-12-29T02:20:42;100552.31;;;9.06;100.00
10060;BME280;5069;49.306;8.636;2023-12-29T02:23:44;100557.63;;;9.04;100.00
10060;BME280;5069;49.306;8.636;2023-12-29T02:26:50;100556.66;;;9.07;100.00
10060;BME280;5069;49.306;8.636;2023-12-29T02:33:10;100553.47;;;8.94;100.00
10060;BME280;5069;49.306;8.636;2023-12-29T02:36:16;100544.75;;;8.94;100.00
10060;BME280;5069;49.306;8.636;2023-12-29T02:39:18;100546.69;;;8.86;100.00
10060;BME280;5069;49.306;8.636;2023-12-29T02:42:20;100558.97;;;8.84;100.00
10060;BME280;5069;49.306;8.636;2023-12-29T02:45:22;100550.28;;;8.82;100.00
10060;BME280;5069;49.306;8.636;2023-12-29T02:48:23;100556.44;;;8.81;100.00
10060;BME280;5069;49.306;8.636;2023-12-29T02:51:25;100557.44;;;8.77;100.00
10060;BME280;5069;49.306;8.636;2023-12-29T02:54:26;100550.50;;;8.73;100.00
10060;BME280;5069;49.306;8.636;2023-12-29T02:57:28;100560.22;;;8.69;100.00
10060;BME280;5069;49.306;8.636;2023-12-29T03:00:29;100555.88;;;8.66;100.00
10060;BME280;5069;49.306;8.636;2023-12-29T03:03:31;100559.50;;;8.62;100.00
10060;BME280;5069;49.306;8.636;2023-12-29T03:06:33;100557.84;;;8.58;100.00
10060;BME280;5069;49.306;8.636;2023-12-29T03:09:35;100556.25;;;8.51;100.00
10060;BME280;5069;49.306;8.636;2023-12-29T03:12:37;100551.06;;;8.48;100.00
10060;BME280;5069;49.306;8.636;2023-12-29T03:15:38;100550.28;;;8.43;100.00
10060;BME280;5069;49.306;8.636;2023-12-29T03:18:40;100549.47;;;8.41;100.00
10060;BME280;5069;49.306;8.636;2023-12-29T03:21:43;100554.00;;;8.35;100.00
10060;BME280;5069;49.306;8.636;2023-12-29T03:24:45;100567.16;;;8.33;100.00
10060;BME280;5069;49.306;8.636;2023-12-29T03:27:47;100565.47;;;8.29;100.00
10060;BME280;5069;49.306;8.636;2023-12-29T03:30:49;100567.34;;;8.24;100.00
10060;BME280;5069;49.306;8.636;2023-12-29T03:33:50;100562.09;;;8.24;100.00
10060;BME280;5069;49.306;8.636;2023-12-29T03:36:53;100569.06;;;8.25;100.00
10060;BME280;5069;49.306;8.636;2023-12-29T03:39:54;100567.34;;;8.22;100.00
10060;BME280;5069;49.306;8.636;2023-12-29T03:42:56;100566.50;;;8.22;100.00
10060;BME280;5069;49.306;8.636;2023-12-29T03:45:57;100565.50;;;8.27;100.00
10060;BME280;5069;49.306;8.636;2023-12-29T03:48:59;100562.00;;;8.30;100.00
10060;BME280;5069;49.306;8.636;2023-12-29T03:52:02;100565.47;;;8.29;100.00
10060;BME280;5069;49.306;8.636;2023-12-29T03:55:04;100575.03;;;8.33;100.00
10060;BME280;5069;49.306;8.636;2023-12-29T03:58:05;100572.38;;;8.36;100.00
10060;BME280;5069;49.306;8.636;2023-12-29T04:01:11;100570.53;;;8.38;100.00
10060;BME280;5069;49.306;8.636;2023-12-29T04:04:13;100570.53;;;8.38;100.00
10060;BME280;5069;49.306;8.636;2023-12-29T04:07:15;100556.47;;;8.42;100.00
10060;BME280;5069;49.306;8.636;2023-12-29T04:10:16;100555.50;;;8.46;100.00
10060;BME280;5069;49.306;8.636;2023-12-29T04:13:18;100545.81;;;8.48;100.00
10060;BME280;5069;49.306;8.636;2023-12-29T04:16:19;100551.06;;;8.48;100.00
10060;BME280;5069;49.306;8.636;2023-12-29T04:19:21;100546.59;;;8.52;100.00
10060;BME280;5069;49.306;8.636;2023-12-29T04:22:22;100544.97;;;8.48;100.00
10060;BME280;5069;49.306;8.636;2023-12-29T04:25:24;100540.50;;;8.51;100.00
10060;BME280;5069;49.306;8.636;2023-12-29T04:28:25;100549.16;;;8.55;100.00
10060;BME280;5069;49.306;8.636;2023-12-29T04:31:28;100556.13;;;8.57;100.00
10060;BME280;5069;49.306;8.636;2023-12-29T04:34:30;100555.22;;;8.58;100.00
10060;BME280;5069;49.306;8.636;2023-12-29T04:37:32;100551.59;;;8.64;100.00
10060;BME280;5069;49.306;8.636;2023-12-29T04:40:33;100541.84;;;8.67;100.00
10060;BME280;5069;49.306;8.636;2023-12-29T04:43:35;100550.56;;;8.69;100.00
10060;BME280;5069;49.306;8.636;2023-12-29T04:46:36;100547.88;;;8.73;100.00
10060;BME280;5069;49.306;8.636;2023-12-29T04:49:38;100551.06;;;8.85;100.00
10060;BME280;5069;49.306;8.636;2023-12-29T04:52:40;100555.41;;;8.88;100.00
10060;BME280;5069;49.306;8.636;2023-12-29T04:55:41;100557.06;;;8.92;100.00
10060;BME280;5069;49.306;8.636;2023-12-29T04:58:43;100551.66;;;8.98;100.00
10060;BME280;5069;49.306;8.636;2023-12-29T05:01:44;100552.41;;;9.01;100.00
10060;BME280;5069;49.306;8.636;2023-12-29T05:04:46;100560.16;;;9.07;100.00
10060;BME280;5069;49.306;8.636;2023-12-29T05:07:47;100565.31;;;9.12;100.00
10060;BME280;5069;49.306;8.636;2023-12-29T05:10:49;100561.50;;;9.24;100.00
10060;BME280;5069;49.306;8.636;2023-12-29T05:13:50;100559.59;;;9.30;100.00
10060;BME280;5069;49.306;8.636;2023-12-29T05:16:52;100552.69;;;9.26;100.00
10060;BME280;5069;49.306;8.636;2023-12-29T05:19:53;100545.44;;;9.34;100.00
10060;BME280;5069;49.306;8.636;2023-12-29T05:22:55;100540.09;;;9.37;100.00
10060;BME280;5069;49.306;8.636;2023-12-29T05:25:56;100532.50;;;9.27;100.00
10060;BME280;5069;49.306;8.636;2023-12-29T05:28:58;100533.44;;;9.24;100.00
10060;BME280;5069;49.306;8.636;2023-12-29T05:31:59;100521.28;;;9.20;100.00
10060;BME280;5069;49.306;8.636;2023-12-29T05:35:03;100519.53;;;9.19;100.00
10060;BME280;5069;49.306;8.636;2023-12-29T05:38:05;100519.63;;;9.16;100.00
10060;BME280;5069;49.306;8.636;2023-12-29T05:41:07;100503.69;;;9.22;100.00
10060;BME280;5069;49.306;8.636;2023-12-29T05:44:08;100512.66;;;9.15;100.00
10060;BME280;5069;49.306;8.636;2023-12-29T05:47:11;100517.97;;;9.12;100.00
10060;BME280;5069;49.306;8.636;2023-12-29T05:50:13;100514.56;;;9.08;100.00
10060;BME280;5069;49.306;8.636;2023-12-29T05:53:14;100514.53;;;9.10;100.00
10060;BME280;5069;49.306;8.636;2023-12-29T05:56:16;100518.94;;;9.09;100.00
10060;BME280;5069;49.306;8.636;2023-12-29T05:59:18;100526.88;;;9.06;100.00
10060;BME280;5069;49.306;8.636;2023-12-29T06:02:19;100533.00;;;9.07;100.00
10060;BME280;5069;49.306;8.636;2023-12-29T06:05:21;100534.75;;;9.06;100.00
10060;BME280;5069;49.306;8.636;2023-12-29T06:08:22;100545.28;;;9.06;100.00
10060;BME280;5069;49.306;8.636;2023-12-29T06:11:24;100541.91;;;9.01;100.00
10060;BME280;5069;49.306;8.636;2023-12-29T06:14:25;100549.91;;;8.97;100.00
10060;BME280;5069;49.306;8.636;2023-12-29T06:17:27;100546.44;;;8.95;100.00
10060;BME280;5069;49.306;8.636;2023-12-29T06:20:28;100542.88;;;8.99;100.00
10060;BME280;5069;49.306;8.636;2023-12-29T06:23:30;100541.94;;;9.00;100.00
10060;BME280;5069;49.306;8.636;2023-12-29T06:26:31;100548.22;;;8.94;100.00
10060;BME280;5069;49.306;8.636;2023-12-29T06:29:33;100551.66;;;8.98;100.00
10060;BME280;5069;49.306;8.636;2023-12-29T06:32:34;100542.19;;;8.91;100.00
10060;BME280;5069;49.306;8.636;2023-12-29T06:35:36;100536.03;;;8.92;100.00
10060;BME280;5069;49.306;8.636;2023-12-29T06:38:40;100535.25;;;8.88;100.00
10060;BME280;5069;49.306;8.636;2023-12-29T06:41:41;100537.59;;;8.99;100.00
10060;BME280;5069;49.306;8.636;2023-12-29T06:44:43;100533.38;;;8.93;100.00
10060;BME280;5069;49.306;8.636;2023-12-29T06:47:44;100534.41;;;8.86;100.00
10060;BME280;5069;49.306;8.636;2023-12-29T06:50:46;100539.78;;;8.82;100.00
10060;BME280;5069;49.306;8.636;2023-12-29T06:53:48;100531.75;;;8.88;100.00
10060;BME280;5069;49.306;8.636;2023-12-29T06:56:50;100532.78;;;8.81;100.00
10060;BME280;5069;49.306;8.636;2023-12-29T06:59:51;100524.81;;;8.84;100.00
10060;BME280;5069;49.306;8.636;2023-12-29T07:02:53;100524.00;;;8.82;100.00
10060;BME280;5069;49.306;8.636;2023-12-29T07:05:54;100543.31;;;8.81;100.00
10060;BME280;5069;49.306;8.636;2023-12-29T07:08:56;100538.03;;;8.81;100.00
10060;BME280;5069;49.306;8.636;2023-12-29T07:11:57;100534.53;;;8.82;100.00
10060;BME280;5069;49.306;8.636;2023-12-29T07:14:58;100533.53;;;8.86;100.00
10060;BME280;5069;49.306;8.636;2023-12-29T07:18:00;100537.16;;;8.82;100.00
10060;BME280;5069;49.306;8.636;2023-12-29T07:21:02;100542.44;;;8.80;100.00
10060;BME280;5069;49.306;8.636;2023-12-29T07:24:04;100539.03;;;8.77;100.00
10060;BME280;5069;49.306;8.636;2023-12-29T07:27:06;100542.50;;;8.77;100.00
10060;BME280;5069;49.306;8.636;2023-12-29T07:30:09;100544.28;;;8.77;100.00
10060;BME280;5069;49.306;8.636;2023-12-29T07:33:11;100549.44;;;8.80;100.00
10060;BME280;5069;49.306;8.636;2023-12-29T07:36:12;100551.19;;;8.81;100.00
10060;BME280;5069;49.306;8.636;2023-12-29T07:39:17;100546.78;;;8.83;100.00
10060;BME280;5069;49.306;8.636;2023-12-29T07:42:18;100551.16;;;8.82;100.00
10060;BME280;5069;49.306;8.636;2023-12-29T07:45:20;100550.44;;;8.76;100.00
10060;BME280;5069;49.306;8.636;2023-12-29T07:48:21;100546.03;;;8.76;100.00
10060;BME280;5069;49.306;8.636;2023-12-29T07:51:23;100548.72;;;8.75;100.00
10060;BME280;5069;49.306;8.636;2023-12-29T07:54:25;100543.59;;;8.68;100.00
10060;BME280;5069;49.306;8.636;2023-12-29T07:57:26;100553.25;;;8.66;100.00
10060;BME280;5069;49.306;8.636;2023-12-29T08:00:27;100544.38;;;8.72;100.00
10060;BME280;5069;49.306;8.636;2023-12-29T08:03:29;100545.03;;;8.82;100.00
10060;BME280;5069;49.306;8.636;2023-12-29T08:06:30;100544.03;;;8.87;100.00
10060;BME280;5069;49.306;8.636;2023-12-29T08:09:32;100538.72;;;8.89;100.00
10060;BME280;5069;49.306;8.636;2023-12-29T08:12:34;100536.94;;;8.89;100.00
10060;BME280;5069;49.306;8.636;2023-12-29T08:15:37;100542.16;;;8.92;100.00
10060;BME280;5069;49.306;8.636;2023-12-29T08:18:38;100548.28;;;8.93;100.00
10060;BME280;5069;49.306;8.636;2023-12-29T08:21:40;100553.53;;;8.93;100.00
10060;BME280;5069;49.306;8.636;2023-12-29T08:24:41;100553.31;;;9.00;100.00
10060;BME280;5069;49.306;8.636;2023-12-29T08:27:46;100553.22;;;9.05;100.00
10060;BME280;5069;49.306;8.636;2023-12-29T08:30:47;100548.75;;;9.08;100.00
10060;BME280;5069;49.306;8.636;2023-12-29T08:33:49;100561.00;;;9.09;100.00
10060;BME280;5069;49.306;8.636;2023-12-29T08:36:51;100560.09;;;9.10;100.00
10060;BME280;5069;49.306;8.636;2023-12-29T08:39:53;100568.69;;;9.17;100.00
10060;BME280;5069;49.306;8.636;2023-12-29T08:42:54;100560.75;;;9.19;100.00
10060;BME280;5069;49.306;8.636;2023-12-29T08:45:56;100565.09;;;9.21;100.00
10060;BME280;5069;49.306;8.636;2023-12-29T08:48:58;100564.94;;;9.27;100.00
10060;BME280;5069;49.306;8.636;2023-12-29T08:52:00;100570.09;;;9.30;100.00
10060;BME280;5069;49.306;8.636;2023-12-29T08:55:01;100579.44;;;9.42;100.00
10060;BME280;5069;49.306;8.636;2023-12-29T08:58:03;100567.03;;;9.47;100.00
10060;BME280;5069;49.306;8.636;2023-12-29T09:01:05;100563.25;;;9.57;100.00
10060;BME280;5069;49.306;8.636;2023-12-29T09:04:07;100565.66;;;9.66;100.00
10060;BME280;5069;49.306;8.636;2023-12-29T09:07:08;100568.88;;;9.76;100.00
10060;BME280;5069;49.306;8.636;2023-12-29T09:10:10;100565.09;;;9.86;100.00
10060;BME280;5069;49.306;8.636;2023-12-29T09:13:14;100563.94;;;9.96;100.00
10060;BME280;5069;49.306;8.636;2023-12-29T09:16:15;100562.44;;;10.18;100.00
10060;BME280;5069;49.306;8.636;2023-12-29T09:19:17;100565.53;;;10.32;100.00
10060;BME280;5069;49.306;8.636;2023-12-29T09:22:35;100552.09;;;10.42;100.00
10060;BME280;5069;49.306;8.636;2023-12-29T09:25:37;100554.53;;;10.48;100.00
10060;BME280;5069;49.306;8.636;2023-12-29T09:28:41;100552.63;;;10.53;100.00
10060;BME280;5069;49.306;8.636;2023-12-29T09:31:45;100546.88;;;10.68;100.00
10060;BME280;5069;49.306;8.636;2023-12-29T09:34:47;100547.38;;;10.79;100.00
10060;BME280;5069;49.306;8.636;2023-12-29T09:37:48;100545.31;;;10.89;100.00
10060;BME280;5069;49.306;8.636;2023-12-29T09:40:50;100535.63;;;10.89;100.00
10060;BME280;5069;49.306;8.636;2023-12-29T09:43:53;100523.56;;;11.08;100.00
10060;BME280;5069;49.306;8.636;2023-12-29T09:46:55;100522.66;;;11.09;100.00
10060;BME280;5069;49.306;8.636;2023-12-29T09:49:58;100519.94;;;11.11;100.00
10060;BME280;5069;49.306;8.636;2023-12-29T09:53:02;100525.88;;;11.17;100.00
10060;BME280;5069;49.306;8.636;2023-12-29T09:56:04;100513.66;;;11.15;100.00
10060;BME280;5069;49.306;8.636;2023-12-29T09:59:08;100506.50;;;11.18;100.00
10060;BME280;5069;49.306;8.636;2023-12-29T10:02:15;100500.59;;;11.37;100.00
10060;BME280;5069;49.306;8.636;2023-12-29T10:05:20;100503.81;;;11.45;100.00
10060;BME280;5069;49.306;8.636;2023-12-29T10:08:22;100492.97;;;11.52;100.00
10060;BME280;5069;49.306;8.636;2023-12-29T10:11:24;100484.81;;;11.60;100.00
10060;BME280;5069;49.306;8.636;2023-12-29T10:14:45;100484.72;;;11.86;100.00
10060;BME280;5069;49.306;8.636;2023-12-29T10:21:01;100477.78;;;11.84;100.00
10060;BME280;5069;49.306;8.636;2023-12-29T10:24:19;100485.75;;;11.82;100.00
10060;BME280;5069;49.306;8.636;2023-12-29T10:27:22;100464.47;;;11.87;100.00
10060;BME280;5069;49.306;8.636;2023-12-29T10:30:24;100465.50;;;11.83;100.00
10060;BME280;5069;49.306;8.636;2023-12-29T10:33:35;100461.19;;;11.80;100.00
10060;BME280;5069;49.306;8.636;2023-12-29T10:37:03;100458.84;;;11.71;100.00
10060;BME280;5069;49.306;8.636;2023-12-29T10:40:08;100458.97;;;11.68;100.00
10060;BME280;5069;49.306;8.636;2023-12-29T10:43:10;100465.00;;;11.73;100.00
10060;BME280;5069;49.306;8.636;2023-12-29T10:46:12;100448.75;;;11.84;100.00
10060;BME280;5069;49.306;8.636;2023-12-29T10:49:17;100461.47;;;11.96;100.00
10060;BME280;5069;49.306;8.636;2023-12-29T10:52:23;100460.03;;;12.11;100.00
10060;BME280;5069;49.306;8.636;2023-12-29T10:55:24;100453.78;;;12.35;100.00
10060;BME280;5069;49.306;8.636;2023-12-29T10:58:27;100454.22;;;12.46;100.00
10060;BME280;5069;49.306;8.636;2023-12-29T11:01:32;100450.09;;;12.39;100.00
10060;BME280;5069;49.306;8.636;2023-12-29T11:04:42;100453.56;;;12.61;100.00
10060;BME280;5069;49.306;8.636;2023-12-29T11:07:47;100447.41;;;12.61;100.00
10060;BME280;5069;49.306;8.636;2023-12-29T11:10:50;100454.38;;;12.63;100.00
10060;BME280;5069;49.306;8.636;2023-12-29T11:13:53;100445.34;;;12.69;100.00
10060;BME280;5069;49.306;8.636;2023-12-29T11:16:55;100438.28;;;12.69;100.00
10060;BME280;5069;49.306;8.636;2023-12-29T11:19:58;100439.66;;;12.78;100.00
10060;BME280;5069;49.306;8.636;2023-12-29T11:23:01;100439.53;;;12.81;100.00
10060;BME280;5069;49.306;8.636;2023-12-29T11:26:03;100432.03;;;12.70;100.00
10060;BME280;5069;49.306;8.636;2023-12-29T11:29:05;100428.22;;;12.77;100.00
10060;BME280;5069;49.306;8.636;2023-12-29T11:32:12;100429.41;;;12.91;100.00
10060;BME280;5069;49.306;8.636;2023-12-29T11:35:25;100414.19;;;12.96;100.00
10060;BME280;5069;49.306;8.636;2023-12-29T11:42:06;100411.56;;;13.36;100.00
10060;BME280;5069;49.306;8.636;2023-12-29T11:45:30;100399.97;;;13.39;100.00
10060;BME280;5069;49.306;8.636;2023-12-29T11:48:55;100402.00;;;13.13;100.00
10060;BME280;5069;49.306;8.636;2023-12-29T11:51:58;100403.94;;;12.88;100.00
10060;BME280;5069;49.306;8.636;2023-12-29T11:55:13;100408.63;;;12.81;100.00
10060;BME280;5069;49.306;8.636;2023-12-29T11:58:26;100404.75;;;12.70;100.00
10060;BME280;5069;49.306;8.636;2023-12-29T12:01:34;100396.88;;;12.68;100.00
10060;BME280;5069;49.306;8.636;2023-12-29T12:04:40;100403.03;;;12.69;100.00
10060;BME280;5069;49.306;8.636;2023-12-29T12:10:49;100402.69;;;12.97;100.00
10060;BME280;5069;49.306;8.636;2023-12-29T12:13:50;100392.78;;;13.02;100.00
10060;BME280;5069;49.306;8.636;2023-12-29T12:16:52;100374.63;;;13.14;100.00
10060;BME280;5069;49.306;8.636;2023-12-29T12:20:13;100371.06;;;13.34;100.00
10060;BME280;5069;49.306;8.636;2023-12-29T12:23:17;100358.63;;;13.36;100.00
10060;BME280;5069;49.306;8.636;2023-12-29T12:26:21;100360.69;;;13.30;100.00
10060;BME280;5069;49.306;8.636;2023-12-29T12:29:24;100352.16;;;13.23;100.00
10060;BME280;5069;49.306;8.636;2023-12-29T12:32:27;100356.47;;;13.26;100.00
10060;BME280;5069;49.306;8.636;2023-12-29T12:35:29;100363.47;;;13.27;100.00
10060;BME280;5069;49.306;8.636;2023-12-29T12:38:31;100352.16;;;13.23;100.00
10060;BME280;5069;49.306;8.636;2023-12-29T12:41:34;100359.44;;;13.18;100.00
10060;BME280;5069;49.306;8.636;2023-12-29T12:44:41;100365.00;;;13.12;100.00
10060;BME280;5069;49.306;8.636;2023-12-29T12:48:03;100359.34;;;12.99;100.00
10060;BME280;5069;49.306;8.636;2023-12-29T12:51:11;100360.38;;;12.97;100.00
10060;BME280;5069;49.306;8.636;2023-12-29T12:54:13;100361.50;;;12.91;100.00
10060;BME280;5069;49.306;8.636;2023-12-29T12:57:18;100366.31;;;12.81;100.00
10060;BME280;5069;49.306;8.636;2023-12-29T13:00:20;100377.03;;;12.78;100.00
10060;BME280;5069;49.306;8.636;2023-12-29T13:03:22;100381.59;;;12.75;100.00
10060;BME280;5069;49.306;8.636;2023-12-29T13:06:24;100385.81;;;12.79;100.00
10060;BME280;5069;49.306;8.636;2023-12-29T13:09:26;100378.59;;;12.62;100.00
10060;BME280;5069;49.306;8.636;2023-12-29T13:12:28;100384.22;;;12.55;100.00
10060;BME280;5069;49.306;8.636;2023-12-29T13:15:29;100384.72;;;12.42;100.00
10060;BME280;5069;49.306;8.636;2023-12-29T13:18:31;100391.22;;;12.56;100.00
10060;BME280;5069;49.306;8.636;2023-12-29T13:21:33;100378.81;;;12.58;100.00
10060;BME280;5069;49.306;8.636;2023-12-29T13:24:35;100373.72;;;12.73;100.00
10060;BME280;5069;49.306;8.636;2023-12-29T13:27:43;100377.44;;;12.69;100.00
10060;BME280;5069;49.306;8.636;2023-12-29T13:30:46;100374.53;;;12.75;100.00
10060;BME280;5069;49.306;8.636;2023-12-29T13:33:59;100365.47;;;12.81;100.00
10060;BME280;5069;49.306;8.636;2023-12-29T13:37:25;100375.91;;;12.84;100.00
10060;BME280;5069;49.306;8.636;2023-12-29T13:40:45;100365.31;;;12.84;100.00
10060;BME280;5069;49.306;8.636;2023-12-29T13:43:48;100369.25;;;12.75;100.00
10060;BME280;5069;49.306;8.636;2023-12-29T13:46:51;100367.84;;;12.87;100.00
10060;BME280;5069;49.306;8.636;2023-12-29T13:49:54;100360.31;;;12.98;100.00
10060;BME280;5069;49.306;8.636;2023-12-29T13:52:55;100362.41;;;12.90;100.00
10060;BME280;5069;49.306;8.636;2023-12-29T13:56:07;100368.44;;;12.73;100.00
10060;BME280;5069;49.306;8.636;2023-12-29T13:59:09;100367.78;;;12.68;100.00
10060;BME280;5069;49.306;8.636;2023-12-29T14:02:27;100375.66;;;12.48;100.00
10060;BME280;5069;49.306;8.636;2023-12-29T14:05:47;100383.03;;;12.41;100.00
10060;BME280;5069;49.306;8.636;2023-12-29T14:08:49;100378.97;;;12.33;100.00
10060;BME280;5069;49.306;8.636;2023-12-29T14:11:51;100379.34;;;12.24;100.00
10060;BME280;5069;49.306;8.636;2023-12-29T14:14:53;100388.19;;;12.23;100.00
10060;BME280;5069;49.306;8.636;2023-12-29T14:17:57;100385.13;;;12.12;100.00
10060;BME280;5069;49.306;8.636;2023-12-29T14:20:59;100379.69;;;12.15;100.00
10060;BME280;5069;49.306;8.636;2023-12-29T14:27:12;100385.13;;;12.12;100.00
10060;BME280;5069;49.306;8.636;2023-12-29T14:30:18;100383.63;;;12.05;100.00
10060;BME280;5069;49.306;8.636;2023-12-29T14:33:19;100386.31;;;12.03;100.00
10060;BME280;5069;49.306;8.636;2023-12-29T14:36:21;100395.31;;;11.99;100.00
10060;BME280;5069;49.306;8.636;2023-12-29T14:39:22;100383.25;;;11.92;100.00
10060;BME280;5069;49.306;8.636;2023-12-29T14:42:25;100394.97;;;11.85;100.00
10060;BME280;5069;49.306;8.636;2023-12-29T14:45:26;100387.91;;;11.85;100.00
10060;BME280;5069;49.306;8.636;2023-12-29T14:48:30;100395.38;;;11.74;100.00
10060;BME280;5069;49.306;8.636;2023-12-29T14:51:33;100390.63;;;11.84;100.00
10060;BME280;5069;49.306;8.636;2023-12-29T14:54:34;100391.72;;;11.78;100.00
10060;BME280;5069;49.306;8.636;2023-12-29T14:57:36;100392.69;;;11.76;100.00
10060;BME280;5069;49.306;8.636;2023-12-29T15:00:37;100392.16;;;11.66;100.00
10060;BME280;5069;49.306;8.636;2023-12-29T15:03:39;100390.53;;;11.62;100.00
10060;BME280;5069;49.306;8.636;2023-12-29T15:06:41;100394.56;;;11.72;100.00
10060;BME280;5069;49.306;8.636;2023-12-29T15:09:43;100399.28;;;11.64;100.00
10060;BME280;5069;49.306;8.636;2023-12-29T15:12:45;100384.00;;;11.72;100.00
10060;BME280;5069;49.306;8.636;2023-12-29T15:15:46;100389.28;;;11.72;100.00
10060;BME280;5069;49.306;8.636;2023-12-29T15:18:48;100383.91;;;11.75;100.00
10060;BME280;5069;49.306;8.636;2023-12-29T15:21:50;100386.88;;;11.89;100.00
10060;BME280;5069;49.306;8.636;2023-12-29T15:24:54;100373.78;;;11.86;100.00
10060;BME280;5069;49.306;8.636;2023-12-29T15:27:56;100392.66;;;11.77;100.00
10060;BME280;5069;49.306;8.636;2023-12-29T15:30:57;100391.94;;;11.72;100.00
10060;BME280;5069;49.306;8.636;2023-12-29T15:33:59;100395.47;;;11.71;100.00
10060;BME280;5069;49.306;8.636;2023-12-29T15:37:01;100379.97;;;11.62;100.00
10060;BME280;5069;49.306;8.636;2023-12-29T15:40:04;100381.69;;;11.63;100.00
10060;BME280;5069;49.306;8.636;2023-12-29T15:43:06;100382.47;;;11.67;100.00
10060;BME280;5069;49.306;8.636;2023-12-29T15:46:17;100370.50;;;11.56;100.00
10060;BME280;5069;49.306;8.636;2023-12-29T15:49:19;100371.50;;;11.54;100.00
10060;BME280;5069;49.306;8.636;2023-12-29T15:52:21;100374.38;;;11.48;100.00
10060;BME280;5069;49.306;8.636;2023-12-29T15:55:23;100376.16;;;11.47;100.00
10060;BME280;5069;49.306;8.636;2023-12-29T15:58:24;100365.88;;;11.40;100.00
10060;BME280;5069;49.306;8.636;2023-12-29T16:01:26;100366.00;;;11.37;100.00
10060;BME280;5069;49.306;8.636;2023-12-29T16:04:29;100359.16;;;11.31;100.00
10060;BME280;5069;49.306;8.636;2023-12-29T16:07:31;100363.44;;;11.34;100.00
10060;BME280;5069;49.306;8.636;2023-12-29T16:10:32;100360.97;;;11.29;100.00
10060;BME280;5069;49.306;8.636;2023-12-29T16:13:34;100363.34;;;11.37;100.00
10060;BME280;5069;49.306;8.636;2023-12-29T16:16:38;100364.03;;;11.42;100.00
10060;BME280;5069;49.306;8.636;2023-12-29T16:19:39;100358.94;;;11.37;100.00
10060;BME280;5069;49.306;8.636;2023-12-29T16:22:41;100366.16;;;11.32;100.00